Time;durP1;ratioP1;P1;durP2;ratioP2;P2;SDS_P1;SDS_P2;PMS_P1;PMS_P2;Temp;Humidity;BMP_temperature;BMP_pressure;BME280_temperature;BME280_humidity;BME280_pressure;Samples;Min_cycle;Max_cycle;Signal;HPM_P1;HPM_P2
2023/05/19 00:01:12;;;;;;;12.38;3.42;;;11.90;86.70;;;11.03;95.94;97797.81;6101966;23;20382;-79
2023/05/19 00:03:51;;;;;;;10.75;3.78;;;11.80;89.10;;;10.95;97.00;97794.78;6074385;23;20386;-79
2023/05/19 00:06:22;;;;;;;9.52;3.30;;;11.70;89.60;;;10.89;93.83;97788.63;6099391;23;20374;-79
2023/05/19 00:08:55;;;;;;;13.13;3.42;;;11.60;87.80;;;10.74;96.66;97799.78;6100513;23;20374;-79
2023/05/19 00:11:24;;;;;;;15.95;4.05;;;11.50;89.00;;;10.67;97.39;97795.69;6074280;23;20437;-78
2023/05/19 00:13:51;;;;;;;9.45;3.30;;;11.40;89.90;;;10.58;100.00;97791.84;6074502;23;20370;-79
2023/05/19 00:16:18;;;;;;;12.90;3.53;;;11.30;90.70;;;10.56;100.00;97792.06;6098914;23;20390;-80
2023/05/19 00:18:46;;;;;;;15.05;3.88;;;11.30;91.60;;;10.50;100.00;97793.03;6073506;23;20374;-79
2023/05/19 00:21:12;;;;;;;14.50;3.58;;;11.30;91.00;;;10.47;100.00;97789.03;6099254;23;20379;-78
2023/05/19 00:23:38;;;;;;;12.85;3.42;;;11.20;91.50;;;10.47;100.00;97796.16;6099155;23;20377;-79
2023/05/19 00:26:06;;;;;;;8.10;3.33;;;11.20;92.30;;;10.41;100.00;97792.63;6099690;23;20378;-80
2023/05/19 00:28:32;;;;;;;11.60;3.53;;;11.20;91.70;;;10.38;100.00;97787.81;6098244;23;20387;-79
2023/05/19 00:30:58;;;;;;;10.23;3.37;;;11.10;91.40;;;10.37;100.00;97785.44;6099647;23;20405;-79
2023/05/19 00:33:24;;;;;;;12.77;3.30;;;11.10;91.90;;;10.35;100.00;97784.84;6099937;23;20375;-80
2023/05/19 00:35:50;;;;;;;9.60;3.28;;;11.10;92.30;;;10.37;100.00;97782.78;6098939;23;20916;-79
2023/05/19 00:38:16;;;;;;;9.45;3.00;;;11.10;92.60;;;10.40;100.00;97787.56;6099559;23;20461;-79
2023/05/19 00:40:42;;;;;;;8.93;3.20;;;11.20;92.10;;;10.37;100.00;97780.13;6073313;23;20908;-79
2023/05/19 00:43:09;;;;;;;8.98;3.75;;;11.10;92.80;;;10.37;100.00;97780.94;6098308;23;20702;-79
2023/05/19 00:45:35;;;;;;;12.05;3.53;;;11.10;93.10;;;10.33;100.00;97782.44;6098510;23;20379;-79
2023/05/19 00:48:01;;;;;;;8.93;3.73;;;11.10;92.90;;;10.36;100.00;97783.81;6098480;23;20405;-81
2023/05/19 00:50:27;;;;;;;11.85;3.47;;;11.10;93.90;;;10.34;100.00;97780.59;6097807;23;20453;-80
2023/05/19 00:52:54;;;;;;;9.57;3.38;;;11.10;93.80;;;10.21;100.00;97780.91;6097119;23;20822;-80
2023/05/19 00:55:22;;;;;;;12.55;3.15;;;11.00;93.40;;;10.20;100.00;97779.31;6097773;23;20441;-79
2023/05/19 00:57:49;;;;;;;12.05;3.83;;;10.90;93.90;;;10.09;100.00;97773.00;6097413;23;20807;-78
2023/05/19 01:00:17;;;;;;;8.77;3.20;;;10.90;94.50;;;10.09;100.00;97778.28;6072087;23;20363;-80
2023/05/19 01:02:43;;;;;;;11.27;3.77;;;10.90;94.90;;;10.04;100.00;97781.66;6097145;23;20501;-79
2023/05/19 01:05:10;;;;;;;10.93;3.30;;;10.80;95.20;;;10.01;100.00;97782.13;6097053;23;20387;-79
2023/05/19 01:07:36;;;;;;;8.43;3.10;;;10.80;94.90;;;10.05;100.00;97777.97;6097642;23;20399;-78
2023/05/19 01:10:03;;;;;;;7.75;3.10;;;10.80;95.20;;;10.04;100.00;97775.56;6097079;23;20375;-78
2023/05/19 01:12:29;;;;;;;13.13;3.15;;;10.80;94.60;;;9.97;100.00;97764.31;6071688;23;20758;-79
2023/05/19 01:14:57;;;;;;;9.50;3.33;;;10.80;93.90;;;9.98;100.00;97758.00;6096677;23;20397;-79
2023/05/19 01:17:34;;;;;;;12.07;3.30;;;10.80;94.20;;;10.01;100.00;97771.53;6071942;23;20378;-80
2023/05/19 01:20:10;;;;;;;10.15;3.00;;;10.80;94.30;;;10.04;100.00;97776.38;6097858;23;20400;-79
2023/05/19 01:23:22;;;;;;;14.13;3.40;;;10.80;94.60;;;10.08;100.00;97774.84;6098070;23;20457;-79
2023/05/19 01:26:26;;;;;;;7.78;2.78;;;10.90;94.80;;;10.18;100.00;97779.53;6097083;23;20378;-79
2023/05/19 01:29:40;;;;;;;7.82;3.10;;;10.90;94.30;;;10.23;100.00;97782.25;6097595;23;20374;-79
2023/05/19 01:32:09;;;;;;;11.60;4.32;;;11.00;94.20;;;10.26;100.00;97786.28;5952336;24;20458;-79
2023/05/19 01:34:41;;;;;;;9.80;3.30;;;11.00;94.40;;;10.28;100.00;97792.16;6070946;23;20389;-80
2023/05/19 01:37:08;;;;;;;9.25;3.38;;;11.00;94.80;;;10.25;100.00;97795.25;6096451;23;20437;-79
2023/05/19 01:39:35;;;;;;;11.02;3.85;;;11.00;93.30;;;10.27;100.00;97787.88;6097640;23;20371;-79
2023/05/19 01:42:02;;;;;;;11.77;3.40;;;11.00;93.60;;;10.23;100.00;97779.63;6096009;23;20445;-79
2023/05/19 01:44:30;;;;;;;10.50;3.13;;;11.00;93.20;;;10.27;100.00;97786.03;6071226;23;20402;-79
2023/05/19 01:46:56;;;;;;;9.75;3.03;;;11.00;93.70;;;10.24;100.00;97783.88;6096582;23;20485;-79
2023/05/19 01:49:23;;;;;;;6.82;3.17;;;11.00;93.40;;;10.25;100.00;97777.53;6096702;23;20378;-79
2023/05/19 01:51:51;;;;;;;11.68;3.10;;;11.00;94.20;;;10.29;100.00;97773.41;6096019;23;20375;-79
2023/05/19 01:54:17;;;;;;;10.75;2.95;;;11.00;94.30;;;10.32;100.00;97782.69;6096787;23;20374;-79
2023/05/19 01:56:59;;;;;;;8.43;2.83;;;11.10;95.30;;;10.26;100.00;97778.34;6097075;23;20390;-79
2023/05/19 01:59:41;;;;;;;11.57;3.22;;;11.00;95.00;;;10.22;100.00;97782.53;6096628;23;20378;-79
2023/05/19 02:02:20;;;;;;;10.73;3.25;;;11.00;94.10;;;10.15;100.00;97773.91;6096601;23;20370;-79
2023/05/19 02:04:56;;;;;;;7.47;3.30;;;10.90;94.70;;;10.10;100.00;97771.97;6070620;23;20846;-79
2023/05/19 02:07:33;;;;;;;14.30;3.20;;;10.90;95.20;;;10.12;100.00;97782.31;6071548;23;20378;-79
2023/05/19 02:10:05;;;;;;;16.80;4.20;;;10.80;95.60;;;10.10;100.00;97777.25;6071174;23;20378;-79
2023/05/19 02:12:36;;;;;;;8.50;3.10;;;10.80;95.90;;;10.13;100.00;97781.28;6097118;23;20381;-79
2023/05/19 02:15:07;;;;;;;11.63;3.10;;;10.90;95.80;;;10.13;100.00;97778.63;6096382;23;20715;-78
2023/05/19 02:17:38;;;;;;;10.88;3.13;;;10.90;95.80;;;10.18;100.00;97774.25;6071133;23;20460;-78
2023/05/19 02:20:08;;;;;;;10.27;3.42;;;10.90;95.90;;;10.15;100.00;97781.84;6071448;23;20373;-78
2023/05/19 02:22:35;;;;;;;10.20;3.42;;;10.90;95.50;;;10.17;100.00;97779.75;6095573;23;20425;-78
2023/05/19 02:25:01;;;;;;;10.50;3.60;;;10.90;95.50;;;10.19;100.00;97786.44;6096590;23;20370;-78
2023/05/19 02:27:28;;;;;;;13.85;3.72;;;10.90;96.30;;;10.15;100.00;97787.13;6096607;23;20381;-78
2023/05/19 02:29:55;;;;;;;9.55;3.17;;;10.90;94.50;;;10.22;100.00;97790.47;6096504;23;20399;-79
2023/05/19 02:32:20;;;;;;;9.47;3.27;;;11.00;94.10;;;10.14;100.00;97781.03;6096176;23;20814;-78
2023/05/19 02:34:47;;;;;;;9.10;3.40;;;10.90;94.20;;;10.16;100.00;97786.06;6096133;23;20474;-79
2023/05/19 02:37:16;;;;;;;14.75;4.47;;;10.90;93.10;;;10.17;100.00;97791.16;6096202;23;20381;-79
2023/05/19 02:39:43;;;;;;;7.32;3.05;;;10.90;94.40;;;10.24;100.00;97788.34;6071258;23;20379;-79
2023/05/19 02:42:10;;;;;;;11.45;3.25;;;11.00;95.50;;;10.24;100.00;97783.06;6095621;23;20713;-80
2023/05/19 02:44:36;;;;;;;13.63;3.30;;;11.00;93.90;;;10.18;100.00;97786.66;6096555;23;20688;-79
2023/05/19 02:47:03;;;;;;;14.10;3.25;;;10.90;93.20;;;10.21;100.00;97781.72;6096688;23;20394;-78
2023/05/19 02:49:29;;;;;;;11.10;3.70;;;11.00;94.90;;;10.28;100.00;97777.06;6096484;23;20378;-79
2023/05/19 02:51:56;;;;;;;11.03;3.77;;;11.00;94.00;;;10.23;100.00;97774.31;6070837;23;20382;-78
2023/05/19 02:54:23;;;;;;;8.35;3.42;;;11.00;94.10;;;10.23;100.00;97769.03;6096577;23;20383;-78
2023/05/19 02:56:49;;;;;;;11.25;3.15;;;11.00;95.00;;;10.20;100.00;97761.59;6096264;23;20386;-78
2023/05/19 02:59:15;;;;;;;11.77;3.67;;;11.00;94.00;;;10.18;100.00;97768.16;6096511;23;20444;-80
2023/05/19 03:01:42;;;;;;;7.32;3.45;;;10.90;95.50;;;10.21;100.00;97768.50;6096016;23;20820;-78
2023/05/19 03:04:08;;;;;;;10.13;3.50;;;10.90;95.30;;;10.12;100.00;97766.44;6096781;23;20371;-78
2023/05/19 03:06:35;;;;;;;13.73;3.72;;;10.90;94.80;;;10.08;100.00;97763.44;6096196;23;20394;-81
2023/05/19 03:09:01;;;;;;;8.65;3.65;;;10.80;95.00;;;10.07;100.00;97761.88;6071057;23;20414;-78
2023/05/19 03:11:29;;;;;;;11.00;3.80;;;10.80;95.60;;;10.08;100.00;97761.59;6096660;23;20406;-79
2023/05/19 03:13:55;;;;;;;12.35;3.60;;;10.80;96.00;;;9.96;100.00;97757.44;6096169;23;20734;-79
2023/05/19 03:16:21;;;;;;;12.00;3.55;;;10.70;95.00;;;10.00;100.00;97761.19;6096211;23;20391;-78
2023/05/19 03:18:47;;;;;;;15.98;3.45;;;10.80;96.50;;;9.91;100.00;97760.78;6070653;23;20393;-79
2023/05/19 03:21:13;;;;;;;11.55;4.00;;;10.70;95.80;;;9.90;100.00;97759.19;6096560;23;20409;-79
2023/05/19 03:23:39;;;;;;;11.75;3.95;;;10.70;96.60;;;9.92;100.00;97758.97;6096628;23;20421;-80
2023/05/19 03:26:05;;;;;;;13.98;3.58;;;10.70;96.00;;;9.89;100.00;97765.50;6096605;23;20371;-80
2023/05/19 03:28:32;;;;;;;13.15;3.58;;;10.70;96.30;;;10.01;100.00;97760.16;6070619;23;20507;-79
2023/05/19 03:30:58;;;;;;;9.65;3.35;;;10.70;95.40;;;9.96;100.00;97762.72;6071470;23;20381;-80
2023/05/19 03:33:24;;;;;;;8.23;3.50;;;10.70;96.00;;;10.12;100.00;97766.44;6096793;23;20370;-79
2023/05/19 03:35:51;;;;;;;10.35;3.80;;;10.70;95.20;;;10.09;100.00;97765.88;6096654;23;20386;-79
2023/05/19 03:38:17;;;;;;;11.57;3.83;;;10.80;95.00;;;10.00;100.00;97763.84;6097207;23;20699;-79
2023/05/19 03:40:43;;;;;;;9.85;3.25;;;10.80;95.30;;;9.95;100.00;97758.47;6073245;23;20413;-80
2023/05/19 03:43:09;;;;;;;11.30;3.63;;;10.70;96.50;;;9.88;100.00;97763.91;6098203;23;20389;-79
2023/05/19 03:45:36;;;;;;;12.27;3.90;;;10.70;96.40;;;9.80;100.00;97766.13;6098785;23;20370;-79
2023/05/19 03:48:06;;;;;;;11.32;3.53;;;10.60;96.70;;;9.73;100.00;97762.81;6098482;23;20370;-79
2023/05/19 03:50:32;;;;;;;16.20;4.97;;;10.50;97.40;;;9.64;100.00;97763.19;6098199;23;20877;-80
2023/05/19 03:52:58;;;;;;;11.73;4.07;;;10.40;99.10;;;9.55;100.00;97766.44;6098288;23;20374;-80
2023/05/19 03:55:24;;;;;;;12.48;4.28;;;10.30;98.30;;;9.51;100.00;97767.94;6098196;23;20392;-79
2023/05/19 03:57:51;;;;;;;12.43;3.45;;;10.30;99.50;;;9.48;100.00;97763.94;6072903;23;20791;-79
2023/05/19 04:00:18;;;;;;;11.18;3.78;;;10.30;99.90;;;9.38;100.00;97769.03;6096522;23;20375;-79
2023/05/19 04:02:45;;;;;;;13.40;3.60;;;10.20;99.90;;;9.35;100.00;97771.31;6097313;23;20374;-80
2023/05/19 04:05:11;;;;;;;10.43;4.07;;;10.10;99.90;;;9.30;100.00;97769.38;6098288;23;20374;-79
2023/05/19 04:07:37;;;;;;;13.35;3.80;;;10.10;99.90;;;9.23;100.00;97769.53;6097139;23;20401;-79
2023/05/19 04:10:04;;;;;;;6.78;3.05;;;10.00;99.90;;;9.24;100.00;97770.31;6097434;23;20865;-79
2023/05/19 04:12:30;;;;;;;10.75;3.70;;;10.00;99.90;;;9.13;100.00;97776.41;6096677;23;20572;-79
2023/05/19 04:14:56;;;;;;;9.33;3.63;;;10.00;99.90;;;9.12;100.00;97782.72;6071754;23;20421;-79
2023/05/19 04:17:25;;;;;;;12.80;3.75;;;9.90;99.90;;;9.21;100.00;97787.44;6072371;23;20856;-79
2023/05/19 04:19:56;;;;;;;10.82;3.63;;;10.00;99.90;;;9.15;100.00;97791.00;6096972;23;20494;-79
2023/05/19 04:22:22;;;;;;;8.52;3.60;;;10.00;99.90;;;9.18;100.00;97792.38;6096673;23;20386;-79
2023/05/19 04:24:50;;;;;;;10.55;3.38;;;10.00;99.90;;;9.14;100.00;97780.66;6097132;23;20366;-79
2023/05/19 04:27:17;;;;;;;13.07;3.38;;;9.90;99.90;;;9.14;100.00;97781.47;6097332;23;20366;-79
2023/05/19 04:29:44;;;;;;;7.97;3.57;;;9.90;99.90;;;9.17;100.00;97786.28;6097166;23;20702;-80
2023/05/19 04:32:11;;;;;;;12.77;4.15;;;9.90;99.90;;;9.20;100.00;97777.91;6096841;23;20456;-80
2023/05/19 04:34:39;;;;;;;8.13;3.13;;;10.00;99.90;;;9.18;100.00;97779.97;6097160;23;20687;-79
2023/05/19 04:37:08;;;;;;;11.60;3.92;;;9.90;99.90;;;9.22;100.00;97782.97;6071539;23;20445;-79
2023/05/19 04:39:37;;;;;;;10.75;3.50;;;10.00;99.90;;;9.37;100.00;97780.63;6071506;23;20378;-80
2023/05/19 04:42:04;;;;;;;16.45;3.90;;;10.10;99.90;;;9.51;100.00;97795.19;6096738;23;20375;-79
2023/05/19 04:44:30;;;;;;;16.15;4.20;;;10.20;99.90;;;9.65;100.00;97785.13;6097216;23;20378;-79
2023/05/19 04:46:56;;;;;;;9.48;3.60;;;10.40;99.90;;;9.69;100.00;97784.44;6097164;23;20402;-79
2023/05/19 04:49:23;;;;;;;9.93;3.65;;;10.50;99.90;;;9.79;100.00;97788.31;6097053;23;20385;-79
2023/05/19 04:51:50;;;;;;;8.88;3.63;;;10.50;99.90;;;9.92;100.00;97786.16;6097529;23;20711;-79
2023/05/19 04:54:17;;;;;;;11.68;4.05;;;10.60;99.90;;;9.90;100.00;97790.91;6097068;23;20371;-79
2023/05/19 04:56:43;;;;;;;12.10;3.95;;;10.70;99.90;;;10.03;100.00;97785.34;6096620;23;20469;-79
2023/05/19 04:59:09;;;;;;;14.57;3.97;;;10.80;99.40;;;10.14;100.00;97788.16;6096785;23;20398;-79
2023/05/19 05:01:39;;;;;;;13.38;3.97;;;10.80;99.90;;;10.12;100.00;97790.25;6096419;23;20374;-79
2023/05/19 05:04:05;;;;;;;10.63;4.10;;;10.90;98.50;;;10.23;100.00;97784.09;6070767;23;20382;-79
2023/05/19 05:06:31;;;;;;;11.48;3.67;;;11.00;98.80;;;10.29;100.00;97797.19;6096823;23;20389;-79
2023/05/19 05:08:57;;;;;;;8.77;3.72;;;11.00;98.80;;;10.35;100.00;97801.53;6096702;23;20565;-79
2023/05/19 05:11:25;;;;;;;9.10;3.13;;;11.10;99.50;;;10.45;100.00;97798.22;6096403;23;20422;-80
2023/05/19 05:13:52;;;;;;;12.10;3.67;;;11.10;99.50;;;10.47;100.00;97801.44;6096701;23;20402;-79
2023/05/19 05:16:19;;;;;;;12.20;3.72;;;11.20;99.90;;;10.55;100.00;97797.59;6098240;23;20383;-80
2023/05/19 05:18:46;;;;;;;13.27;4.00;;;11.30;99.70;;;10.58;100.00;97797.13;6072860;23;20389;-80
2023/05/19 05:21:12;;;;;;;11.95;3.97;;;11.30;98.80;;;10.63;100.00;97784.78;6072489;23;20726;-79
2023/05/19 05:23:39;;;;;;;15.60;4.20;;;11.40;98.20;;;10.71;100.00;97786.22;6094775;23;20390;-81
2023/05/19 05:26:18;;;;;;;9.15;3.58;;;11.40;97.70;;;10.74;100.00;97785.75;6096111;23;20367;-80
2023/05/19 05:28:45;;;;;;;11.57;3.50;;;11.40;97.80;;;10.71;100.00;97781.72;6095339;23;20798;-79
2023/05/19 05:31:11;;;;;;;14.25;4.22;;;11.50;97.50;;;10.73;100.00;97782.28;6097331;23;20374;-79
2023/05/19 05:33:37;;;;;;;11.00;3.65;;;11.40;97.60;;;10.75;100.00;97784.72;6095556;23;20377;-79
2023/05/19 05:36:05;;;;;;;12.50;4.43;;;11.50;98.20;;;10.74;100.00;97791.03;6095114;23;20477;-79
2023/05/19 05:38:33;;;;;;;10.25;4.15;;;11.50;98.00;;;10.76;100.00;97778.34;6098477;23;20370;-80
2023/05/19 05:41:01;;;;;;;12.10;3.90;;;11.50;98.30;;;10.80;100.00;97782.13;6096451;23;20750;-78
2023/05/19 05:43:28;;;;;;;14.85;4.47;;;11.50;99.60;;;10.78;100.00;97792.16;6097463;23;20910;-80
2023/05/19 05:45:55;;;;;;;11.88;3.95;;;11.60;97.00;;;10.91;100.00;97791.81;6099168;23;20450;-81
2023/05/19 05:48:23;;;;;;;14.07;3.90;;;11.60;97.90;;;10.98;100.00;97792.44;6098682;23;20413;-80
2023/05/19 05:50:49;;;;;;;12.60;3.83;;;11.70;96.30;;;11.01;100.00;97794.63;6073022;23;20378;-81
2023/05/19 05:53:18;;;;;;;13.48;3.58;;;11.70;95.90;;;11.14;100.00;97791.59;6097622;23;20823;-81
2023/05/19 05:55:45;;;;;;;10.60;3.67;;;11.80;96.20;;;11.12;100.00;97800.88;6097551;23;20463;-81
2023/05/19 05:58:19;;;;;;;8.73;3.67;;;11.90;96.90;;;11.18;100.00;97794.59;6096316;23;20792;-81
2023/05/19 06:00:47;;;;;;;10.70;4.05;;;11.90;97.10;;;11.27;100.00;97802.91;6096857;23;20708;-81
2023/05/19 06:03:15;;;;;;;12.90;4.03;;;12.00;96.70;;;11.34;100.00;97801.69;6096779;23;20374;-81
2023/05/19 06:05:41;;;;;;;11.82;3.70;;;12.00;96.60;;;11.40;100.00;97795.41;6097829;23;20453;-80
2023/05/19 06:08:07;;;;;;;14.13;4.22;;;12.10;95.00;;;11.42;100.00;97797.81;6096203;23;20409;-80
2023/05/19 06:10:34;;;;;;;9.88;4.13;;;12.10;95.70;;;11.46;100.00;97790.97;6098429;23;20726;-80
2023/05/19 06:13:00;;;;;;;10.98;3.90;;;12.10;95.30;;;11.52;100.00;97798.72;6097282;23;20711;-79
2023/05/19 06:15:30;;;;;;;15.82;4.70;;;12.20;95.10;;;11.58;100.00;97791.63;6097596;23;20390;-82
2023/05/19 06:17:56;;;;;;;12.13;4.40;;;12.20;95.00;;;11.63;100.00;97789.88;6071439;23;20477;-82
2023/05/19 06:20:24;;;;;;;13.03;3.90;;;12.30;94.20;;;11.70;100.00;97792.31;6097143;23;20398;-77
2023/05/19 06:22:50;;;;;;;9.45;3.72;;;12.40;93.50;;;11.82;100.00;97786.91;6096179;23;20477;-80
2023/05/19 06:25:16;;;;;;;12.57;3.83;;;12.50;94.50;;;11.90;100.00;97781.97;6096671;23;20872;-78
2023/05/19 06:27:42;;;;;;;12.38;4.00;;;12.60;94.00;;;12.00;100.00;97783.94;6070795;23;20390;-81
2023/05/19 06:30:09;;;;;;;14.25;4.20;;;12.70;93.40;;;12.09;100.00;97781.63;6071892;23;20389;-80
2023/05/19 06:32:34;;;;;;;11.60;3.83;;;12.80;95.00;;;12.15;100.00;97775.31;6095149;23;20438;-81
2023/05/19 06:35:00;;;;;;;17.65;5.25;;;12.80;94.70;;;12.30;100.00;97781.56;6071302;23;20456;-80
2023/05/19 06:37:28;;;;;;;10.80;4.10;;;13.00;93.80;;;12.17;99.51;97775.88;6095181;23;20858;-79
2023/05/19 06:39:54;;;;;;;13.18;4.15;;;12.90;91.00;;;12.26;100.00;97780.44;6071120;23;20854;-79
2023/05/19 06:42:21;;;;;;;12.25;4.22;;;12.90;91.80;;;12.28;100.00;97773.03;6069437;23;20428;-80
2023/05/19 06:44:48;;;;;;;12.07;4.15;;;13.00;93.10;;;12.32;100.00;97776.00;6096534;23;20374;-78
2023/05/19 06:47:14;;;;;;;15.07;4.63;;;13.00;92.60;;;12.40;100.00;97778.97;6071513;23;20382;-78
2023/05/19 06:49:40;;;;;;;14.48;4.28;;;13.10;93.00;;;12.50;100.00;97778.28;6097182;23;20370;-79
2023/05/19 06:52:07;;;;;;;10.48;4.00;;;13.20;92.10;;;12.66;100.00;97773.88;6096996;23;20811;-80
2023/05/19 06:54:34;;;;;;;15.95;4.10;;;13.30;92.00;;;12.84;100.00;97767.38;6095325;23;20379;-78
2023/05/19 06:57:00;;;;;;;13.50;4.53;;;13.50;92.30;;;12.93;98.67;97777.25;6095888;23;20847;-77
2023/05/19 06:59:26;;;;;;;11.57;3.83;;;13.60;91.10;;;12.95;98.36;97777.78;6070679;23;20390;-78
2023/05/19 07:01:52;;;;;;;14.13;3.80;;;13.60;90.90;;;13.13;100.00;97781.94;6096446;23;20708;-79
2023/05/19 07:04:18;;;;;;;11.50;3.95;;;13.80;92.00;;;13.28;100.00;97786.53;6069987;23;20782;-81
2023/05/19 07:06:44;;;;;;;13.38;4.35;;;13.90;91.80;;;13.36;100.00;97783.38;6069185;23;20385;-79
2023/05/19 07:09:10;;;;;;;13.55;4.60;;;14.00;91.70;;;13.40;98.06;97781.78;6095603;23;20432;-81
2023/05/19 07:11:38;;;;;;;13.38;4.25;;;14.00;90.70;;;13.59;95.46;97769.66;6096319;23;20385;-79
2023/05/19 07:14:51;;;;;;;16.30;4.15;;;14.20;90.10;;;13.87;94.64;97784.38;6071544;23;20381;-75
2023/05/19 07:17:17;;;;;;;12.77;3.75;;;14.40;90.60;;;14.13;94.56;97779.91;6098824;23;20409;-77
2023/05/19 07:19:43;;;;;;;16.60;4.30;;;14.70;90.10;;;14.29;92.57;97779.66;6098089;23;20835;-79
2023/05/19 07:22:09;;;;;;;11.98;4.22;;;14.90;88.60;;;14.43;92.07;97779.19;6072459;23;20386;-77
2023/05/19 07:24:35;;;;;;;13.40;4.03;;;15.10;88.40;;;14.57;87.34;97773.06;6098066;23;20816;-78
2023/05/19 07:27:04;;;;;;;11.02;4.20;;;15.10;85.00;;;14.71;89.43;97771.44;6099002;23;20373;-78
2023/05/19 07:29:33;;;;;;;13.13;4.28;;;15.30;86.60;;;14.88;89.47;97767.69;6098487;23;20384;-80
2023/05/19 07:31:59;;;;;;;10.73;4.07;;;15.50;86.60;;;14.99;89.98;97771.94;6099778;23;20381;-79
2023/05/19 07:34:25;;;;;;;11.25;3.97;;;15.60;87.10;;;15.02;88.14;97769.53;6099240;23;20370;-79
2023/05/19 07:36:52;;;;;;;11.88;4.00;;;15.60;85.30;;;14.85;83.95;97771.69;6098496;23;20516;-78
2023/05/19 07:39:19;;;;;;;13.48;3.85;;;15.60;82.30;;;14.91;87.76;97769.81;6099309;23;20374;-80
2023/05/19 07:41:51;;;;;;;15.27;4.45;;;15.50;85.20;;;14.86;89.49;97767.16;6100219;23;20684;-80
2023/05/19 07:44:20;;;;;;;12.68;3.88;;;15.50;86.20;;;15.07;87.19;97764.19;6100523;23;20377;-79
2023/05/19 07:46:46;;;;;;;14.90;4.13;;;15.60;85.10;;;15.02;81.62;97761.53;6100366;23;20398;-79
2023/05/19 07:49:12;;;;;;;18.08;4.13;;;15.70;80.80;;;15.31;83.24;97768.91;6074875;23;20488;-79
2023/05/19 07:51:40;;;;;;;15.88;3.83;;;15.90;82.50;;;15.45;83.13;97761.94;6100831;23;20433;-79
2023/05/19 07:54:07;;;;;;;14.02;4.60;;;16.00;82.10;;;15.64;83.83;97760.25;6100137;23;20374;-79
2023/05/19 07:56:33;;;;;;;14.77;4.20;;;16.20;82.90;;;15.66;82.56;97760.81;6075309;23;20430;-79
2023/05/19 07:58:59;;;;;;;15.95;4.07;;;16.30;81.40;;;15.74;78.95;97754.88;6099114;23;20398;-79
2023/05/19 08:01:27;;;;;;;23.42;6.15;;;16.30;78.70;;;15.65;76.23;97753.88;6099010;23;20381;-79
2023/05/19 08:03:52;;;;;;;12.57;3.85;;;16.30;76.90;;;15.58;78.47;97755.22;6098971;23;20464;-78
2023/05/19 08:06:18;;;;;;;12.83;4.30;;;16.20;78.50;;;15.45;80.02;97752.06;6099238;23;20459;-78
2023/05/19 08:08:45;;;;;;;11.77;3.70;;;16.10;79.70;;;15.51;79.50;97750.16;6098981;23;20374;-78
2023/05/19 08:11:11;;;;;;;10.57;3.83;;;16.00;79.60;;;15.45;80.47;97741.38;6099468;23;20381;-78
2023/05/19 08:13:37;;;;;;;14.32;4.32;;;16.00;80.50;;;15.42;79.67;97741.13;6098142;23;20370;-78
2023/05/19 08:16:03;;;;;;;14.73;3.77;;;16.00;79.60;;;15.34;79.62;97755.03;6098746;23;20469;-79
2023/05/19 08:18:32;;;;;;;17.40;4.38;;;15.90;79.60;;;15.20;81.33;97746.00;6099328;23;20375;-79
2023/05/19 08:20:58;;;;;;;11.15;3.97;;;15.80;80.70;;;15.04;80.40;97746.03;6098789;23;20381;-79
2023/05/19 08:23:24;;;;;;;20.17;4.13;;;15.70;80.40;;;14.93;79.06;97744.50;6098705;23;20402;-78
2023/05/19 08:25:50;;;;;;;11.60;3.72;;;15.60;79.30;;;15.17;80.98;97743.91;6097836;23;20466;-78
2023/05/19 08:28:16;;;;;;;14.20;3.90;;;15.70;80.80;;;15.26;81.71;97744.94;6098473;23;20484;-78
2023/05/19 08:30:42;;;;;;;13.70;3.90;;;15.80;81.90;;;15.21;83.02;97734.28;6098672;23;20374;-78
2023/05/19 08:33:08;;;;;;;13.35;4.13;;;15.70;82.10;;;15.18;80.58;97740.16;6073029;23;20389;-79
2023/05/19 08:35:36;;;;;;;11.05;3.60;;;15.80;80.80;;;15.22;81.48;97743.88;6098397;23;20382;-79
2023/05/19 08:38:02;;;;;;;11.95;3.78;;;15.80;80.90;;;15.34;79.23;97737.16;6098401;23;20392;-79
2023/05/19 08:40:30;;;;;;;12.00;4.10;;;15.90;79.70;;;15.29;82.64;97736.38;6098438;23;20707;-78
2023/05/19 08:42:56;;;;;;;16.67;4.00;;;15.90;81.90;;;15.22;81.97;97734.00;6098790;23;20894;-79
2023/05/19 08:45:22;;;;;;;14.48;4.25;;;15.80;81.00;;;15.38;81.94;97740.09;6072411;23;20405;-78
2023/05/19 08:47:51;;;;;;;18.92;4.13;;;15.90;81.40;;;15.52;79.34;97733.09;6070465;23;20379;-78
2023/05/19 08:50:29;;;;;;;10.50;3.92;;;16.10;79.80;;;15.42;77.12;97733.13;6072746;23;20793;-78
2023/05/19 08:53:03;;;;;;;13.90;3.70;;;16.10;78.00;;;15.47;80.15;97725.13;6098039;23;20402;-80
2023/05/19 08:55:40;;;;;;;12.70;4.15;;;16.00;80.20;;;15.48;79.45;97730.19;6097305;23;20473;-78
2023/05/19 08:58:07;;;;;;;14.30;4.38;;;16.10;79.40;;;15.53;77.62;97725.88;6099795;23;20370;-79
2023/05/19 09:00:33;;;;;;;14.43;4.07;;;16.20;78.60;;;15.78;77.35;97731.13;6071444;23;20469;-78
2023/05/19 09:03:01;;;;;;;14.52;3.65;;;16.30;78.20;;;15.94;75.80;97724.59;6071487;23;20855;-81
2023/05/19 09:05:27;;;;;;;15.30;3.90;;;16.40;77.30;;;16.01;76.96;97725.13;6099531;23;20378;-77
2023/05/19 09:07:53;;;;;;;10.88;3.83;;;16.50;77.90;;;16.03;76.32;97722.94;6097740;23;20386;-78
2023/05/19 09:10:21;;;;;;;14.98;4.00;;;16.60;77.40;;;16.17;75.54;97729.25;6094521;23;20462;-76
2023/05/19 09:12:48;;;;;;;13.47;3.80;;;16.70;76.70;;;16.27;74.25;97721.16;6093735;23;20441;-76
2023/05/19 09:15:19;;;;;;;12.15;3.40;;;16.70;76.00;;;16.44;76.07;97725.31;6093765;23;20438;-77
2023/05/19 09:17:48;;;;;;;16.30;4.33;;;16.90;76.90;;;16.33;72.71;97724.59;6094988;23;21000;-76
2023/05/19 09:20:16;;;;;;;19.48;3.67;;;16.90;74.40;;;16.39;73.39;97731.47;6094883;23;20505;-77
2023/05/19 09:22:46;;;;;;;16.83;3.72;;;16.90;75.20;;;16.40;74.45;97726.94;6094573;23;20830;-77
2023/05/19 09:25:21;;;;;;;12.77;3.50;;;16.90;76.10;;;16.45;73.31;97734.94;6094846;23;20491;-76
2023/05/19 09:27:48;;;;;;;12.32;3.60;;;17.00;75.30;;;16.41;73.43;97733.88;6093764;23;20711;-77
2023/05/19 09:30:16;;;;;;;12.07;4.00;;;17.00;74.80;;;16.30;71.91;97735.84;6094439;23;20366;-76
2023/05/19 09:32:42;;;;;;;11.55;3.83;;;16.80;74.00;;;16.24;71.35;97731.59;6094513;23;20374;-76
2023/05/19 09:35:09;;;;;;;10.02;3.85;;;16.80;73.40;;;16.05;75.14;97733.34;6093890;23;20374;-76
2023/05/19 09:37:39;;;;;;;12.23;4.03;;;16.70;76.50;;;16.11;73.13;97725.03;6094419;23;20390;-76
2023/05/19 09:40:08;;;;;;;13.50;3.95;;;16.70;75.20;;;15.95;71.13;97731.53;6094304;23;21078;-76
2023/05/19 09:42:37;;;;;;;11.88;3.72;;;16.60;73.50;;;15.85;74.15;97729.75;6093303;23;20703;-76
2023/05/19 09:45:04;;;;;;;13.90;4.40;;;16.50;75.60;;;15.87;74.57;97732.13;6045267;23;20390;-76
2023/05/19 09:47:33;;;;;;;12.23;4.20;;;16.40;75.90;;;15.75;74.32;97721.00;6093775;23;20374;-76
2023/05/19 09:49:59;;;;;;;13.43;4.07;;;16.30;75.70;;;15.76;74.37;97727.94;6094883;23;20374;-76
2023/05/19 09:52:26;;;;;;;16.80;3.90;;;16.30;76.30;;;15.84;76.65;97724.69;6094818;23;20502;-77
2023/05/19 09:54:53;;;;;;;12.45;3.92;;;16.40;78.40;;;16.09;74.73;97721.03;6093851;23;20378;-76
2023/05/19 09:57:26;;;;;;;12.60;4.07;;;16.60;77.10;;;16.35;75.57;97718.97;6094919;23;20485;-76
2023/05/19 09:59:56;;;;;;;15.80;4.20;;;16.80;77.30;;;16.58;74.51;97719.03;6093704;23;20378;-77
2023/05/19 10:02:24;;;;;;;16.48;4.15;;;17.00;76.40;;;16.86;75.10;97714.00;6093752;23;20404;-77
2023/05/19 10:04:52;;;;;;;12.73;3.47;;;17.30;77.00;;;16.75;69.22;97710.63;6094889;23;20377;-77
2023/05/19 10:07:19;;;;;;;16.17;3.70;;;17.40;71.40;;;17.01;73.14;97717.31;6093659;23;20366;-77
2023/05/19 10:09:45;;;;;;;10.52;3.72;;;17.40;75.10;;;17.09;70.86;97713.22;6095009;23;20378;-77
2023/05/19 10:12:12;;;;;;;10.13;3.78;;;17.60;74.20;;;17.28;69.68;97715.94;6095146;23;20370;-77
2023/05/19 10:14:39;;;;;;;12.98;3.63;;;17.70;73.00;;;17.30;71.10;97714.56;6095087;23;20378;-77